createdAt,value
2022-07-29T00:00:21.463Z,14.55
2022-07-29T00:02:48.057Z,14.54
2022-07-29T00:05:14.717Z,14.50
2022-07-29T00:07:42.204Z,14.47
2022-07-29T00:10:08.973Z,14.43
2022-07-29T00:12:35.459Z,14.35
2022-07-29T00:15:02.755Z,14.31
2022-07-29T00:17:29.210Z,14.25
2022-07-29T00:19:55.640Z,14.23
2022-07-29T00:22:22.192Z,14.26
2022-07-29T00:24:50.154Z,14.19
2022-07-29T00:27:17.452Z,14.18
2022-07-29T00:29:43.876Z,14.14
2022-07-29T00:32:10.681Z,14.16
2022-07-29T00:34:56.377Z,14.15
2022-07-29T00:37:22.991Z,14.20
2022-07-29T00:39:49.465Z,14.18
2022-07-29T00:42:17.255Z,14.15
2022-07-29T00:44:43.984Z,14.08
2022-07-29T00:47:11.872Z,14.04
2022-07-29T00:49:40.826Z,14.06
2022-07-29T00:52:09.364Z,14.05
2022-07-29T00:54:37.442Z,14.04
2022-07-29T00:57:10.940Z,14.07
2022-07-29T00:59:37.438Z,14.06
2022-07-29T01:02:04.549Z,14.05
2022-07-29T01:04:32.299Z,14.08
2022-07-29T01:07:01.575Z,14.07
2022-07-29T01:09:45.315Z,14.05
2022-07-29T01:12:17.760Z,14.05
2022-07-29T01:14:44.521Z,14.04
2022-07-29T01:17:20.059Z,14.03
2022-07-29T01:20:05.493Z,14.00
2022-07-29T01:22:47.701Z,14.02
2022-07-29T01:25:33.598Z,14.02
2022-07-29T01:28:06.134Z,14.04
2022-07-29T01:30:35.119Z,14.06
2022-07-29T01:33:06.881Z,14.07
2022-07-29T01:35:39.147Z,14.08
2022-07-29T01:38:13.547Z,14.12
2022-07-29T01:40:39.817Z,14.14
2022-07-29T01:43:17.107Z,14.15
2022-07-29T01:45:51.691Z,14.17
2022-07-29T01:48:25.300Z,14.14
2022-07-29T01:50:59.441Z,14.16
2022-07-29T01:53:38.279Z,14.15
2022-07-29T01:56:07.468Z,14.17
2022-07-29T01:58:35.920Z,14.18
2022-07-29T02:01:04.574Z,14.21
2022-07-29T02:03:33.965Z,14.19
2022-07-29T02:06:02.500Z,14.21
2022-07-29T02:08:31.578Z,14.21
2022-07-29T02:10:59.597Z,14.20
2022-07-29T02:13:28.620Z,14.22
2022-07-29T02:15:58.226Z,14.24
2022-07-29T02:18:28.868Z,14.24
2022-07-29T02:20:57.797Z,14.25
2022-07-29T02:23:26.045Z,14.22
2022-07-29T02:26:00.124Z,14.20
2022-07-29T02:28:29.341Z,14.16
2022-07-29T02:31:00.422Z,14.14
2022-07-29T02:33:28.656Z,14.11
2022-07-29T02:35:56.040Z,14.10
2022-07-29T02:38:43.707Z,14.06
2022-07-29T02:41:16.337Z,14.05
2022-07-29T02:43:45.907Z,14.02
2022-07-29T02:46:28.979Z,14.00
2022-07-29T02:49:22.725Z,14.01
2022-07-29T02:51:56.116Z,13.99
2022-07-29T02:54:39.817Z,13.99
2022-07-29T02:57:15.354Z,13.95
2022-07-29T02:59:44.576Z,13.93
2022-07-29T03:02:13.738Z,13.90
2022-07-29T03:04:43.449Z,13.85
2022-07-29T03:07:11.829Z,13.84
2022-07-29T03:09:39.499Z,13.82
2022-07-29T03:12:06.685Z,13.77
2022-07-29T03:14:33.650Z,13.76
2022-07-29T03:17:00.695Z,13.75
2022-07-29T03:19:27.921Z,13.73
2022-07-29T03:21:58.041Z,13.72
2022-07-29T03:24:33.470Z,13.70
2022-07-29T03:27:00.495Z,13.69
2022-07-29T03:29:33.661Z,13.69
2022-07-29T03:32:02.729Z,13.66
2022-07-29T03:34:30.057Z,13.66
2022-07-29T03:36:56.473Z,13.68
2022-07-29T03:39:25.642Z,13.66
2022-07-29T03:41:57.593Z,13.65
2022-07-29T03:44:26.783Z,13.66
2022-07-29T03:46:56.757Z,13.64
2022-07-29T03:49:24.875Z,13.66
2022-07-29T03:51:51.447Z,13.64
2022-07-29T03:54:18.119Z,13.66
2022-07-29T03:56:48.475Z,13.63
2022-07-29T03:59:16.598Z,13.56
2022-07-29T04:01:44.101Z,13.52
2022-07-29T04:04:11.244Z,13.55
2022-07-29T04:06:43.099Z,13.54
2022-07-29T04:09:10.131Z,13.54
2022-07-29T04:12:00.683Z,13.51
2022-07-29T04:14:25.465Z,13.46
2022-07-29T04:16:51.999Z,13.43
2022-07-29T04:19:18.400Z,13.44
2022-07-29T04:21:46.121Z,13.44
2022-07-29T04:24:12.887Z,13.43
2022-07-29T04:26:39.609Z,13.44
2022-07-29T04:29:06.039Z,13.51
2022-07-29T04:31:32.568Z,13.55
2022-07-29T04:33:58.973Z,13.56
2022-07-29T04:36:29.219Z,13.61
2022-07-29T04:38:56.583Z,13.61
2022-07-29T04:41:23.323Z,13.64
2022-07-29T04:43:50.077Z,13.67
2022-07-29T04:46:16.856Z,13.75
2022-07-29T04:48:43.374Z,13.77
2022-07-29T04:51:09.908Z,13.83
2022-07-29T04:53:36.324Z,13.89
2022-07-29T04:56:03.410Z,13.92
2022-07-29T04:58:29.952Z,13.97
2022-07-29T05:00:56.590Z,14.00
2022-07-29T05:03:23.202Z,14.03
2022-07-29T05:05:49.644Z,14.06
2022-07-29T05:08:16.060Z,14.06
2022-07-29T05:10:42.556Z,14.10
2022-07-29T05:13:09.095Z,14.13
2022-07-29T05:15:36.384Z,14.15
2022-07-29T05:18:03.917Z,14.20
2022-07-29T05:20:31.544Z,14.22
2022-07-29T05:22:58.921Z,14.22
2022-07-29T05:25:43.364Z,14.29
2022-07-29T05:28:10.464Z,14.38
2022-07-29T05:30:36.868Z,14.49
2022-07-29T05:33:03.291Z,14.53
2022-07-29T05:35:29.699Z,14.53
2022-07-29T05:37:56.073Z,14.50
2022-07-29T05:40:22.599Z,14.56
2022-07-29T05:42:48.981Z,14.64
2022-07-29T05:45:15.382Z,14.66
2022-07-29T05:47:41.772Z,14.68
2022-07-29T05:50:08.724Z,14.75
2022-07-29T05:52:35.166Z,14.75
2022-07-29T05:55:05.291Z,14.68
2022-07-29T05:57:32.137Z,14.65
2022-07-29T05:59:58.706Z,14.76
2022-07-29T06:02:25.282Z,15.04
2022-07-29T06:04:51.808Z,15.40
2022-07-29T06:07:18.299Z,15.74
2022-07-29T06:09:44.799Z,16.07
2022-07-29T06:12:11.297Z,16.35
2022-07-29T06:14:39.100Z,16.46
2022-07-29T06:17:06.537Z,16.60
2022-07-29T06:19:35.580Z,16.77
2022-07-29T06:22:02.372Z,16.95
2022-07-29T06:24:28.980Z,17.02
2022-07-29T06:26:55.551Z,17.07
2022-07-29T06:29:22.008Z,17.04
2022-07-29T06:31:48.410Z,17.13
2022-07-29T06:34:15.077Z,17.35
2022-07-29T06:36:41.849Z,17.43
2022-07-29T06:39:09.448Z,17.57
2022-07-29T06:41:38.033Z,17.93
2022-07-29T06:44:05.529Z,18.03
2022-07-29T06:46:32.003Z,17.82
2022-07-29T06:48:58.460Z,17.63
2022-07-29T06:51:24.958Z,17.70
2022-07-29T06:53:59.631Z,17.73
2022-07-29T06:56:30.978Z,17.79
2022-07-29T06:58:57.427Z,18.03
2022-07-29T07:01:23.915Z,18.38
2022-07-29T07:03:50.567Z,18.52
2022-07-29T07:06:17.318Z,18.65
2022-07-29T07:08:43.799Z,18.82
2022-07-29T07:11:10.335Z,18.97
2022-07-29T07:13:37.001Z,18.77
2022-07-29T07:16:04.018Z,18.79
2022-07-29T07:18:30.473Z,18.78
2022-07-29T07:20:57.586Z,18.87
2022-07-29T07:23:24.184Z,18.89
2022-07-29T07:25:50.684Z,18.91
2022-07-29T07:28:17.108Z,19.00
2022-07-29T07:30:43.785Z,18.81
2022-07-29T07:33:10.246Z,18.75
2022-07-29T07:35:36.657Z,18.95
2022-07-29T07:38:03.060Z,19.11
2022-07-29T07:40:29.481Z,19.13
2022-07-29T07:42:55.858Z,19.57
2022-07-29T07:45:22.327Z,19.63
2022-07-29T07:47:48.722Z,19.69
2022-07-29T07:50:19.065Z,19.67
2022-07-29T07:52:51.820Z,20.04
2022-07-29T07:55:19.192Z,20.07
2022-07-29T07:57:46.484Z,19.91
2022-07-29T08:00:14.703Z,20.20
2022-07-29T08:02:41.320Z,20.53
2022-07-29T08:05:12.683Z,20.73
2022-07-29T08:07:39.660Z,20.98
2022-07-29T08:10:06.572Z,21.12
2022-07-29T08:12:33.152Z,20.98
2022-07-29T08:14:59.769Z,20.76
2022-07-29T08:17:27.491Z,20.95
2022-07-29T08:19:53.945Z,20.80
2022-07-29T08:22:20.719Z,20.83
2022-07-29T08:24:56.974Z,20.98
2022-07-29T08:27:43.016Z,21.28
2022-07-29T08:30:11.261Z,21.28
2022-07-29T08:32:53.161Z,21.50
2022-07-29T08:35:21.888Z,21.59
2022-07-29T08:37:48.809Z,22.56
2022-07-29T08:40:15.399Z,22.76
2022-07-29T08:42:42.145Z,23.39
2022-07-29T08:45:09.353Z,24.25
2022-07-29T08:47:40.431Z,24.11
2022-07-29T08:50:08.749Z,24.05
2022-07-29T08:52:37.732Z,23.86
2022-07-29T08:55:06.317Z,24.01
2022-07-29T08:57:34.328Z,23.89
2022-07-29T09:00:08.159Z,23.28
2022-07-29T09:02:43.079Z,24.03
2022-07-29T09:05:13.520Z,24.23
2022-07-29T09:07:40.541Z,23.91
2022-07-29T09:10:07.656Z,23.11
2022-07-29T09:12:37.997Z,23.45
2022-07-29T09:15:05.117Z,22.74
2022-07-29T09:17:45.766Z,22.57
2022-07-29T09:20:18.028Z,22.45
2022-07-29T09:22:50.049Z,22.96
2022-07-29T09:25:33.434Z,22.87
2022-07-29T09:28:26.504Z,21.86
2022-07-29T09:30:57.832Z,21.92
2022-07-29T09:33:25.544Z,22.83
2022-07-29T09:36:04.455Z,23.09
2022-07-29T09:38:34.262Z,22.94
2022-07-29T09:41:06.018Z,22.75
2022-07-29T09:43:33.532Z,22.68
2022-07-29T09:46:15.436Z,22.46
2022-07-29T09:48:42.055Z,22.68
2022-07-29T09:51:26.837Z,22.55
2022-07-29T09:53:56.666Z,23.08
2022-07-29T09:56:40.110Z,23.64
2022-07-29T09:59:07.840Z,23.94
2022-07-29T10:01:34.625Z,23.90
2022-07-29T10:04:01.426Z,23.90
2022-07-29T10:06:27.833Z,23.71
2022-07-29T10:08:54.820Z,23.37
2022-07-29T10:11:21.344Z,23.17
2022-07-29T10:13:49.417Z,23.12
2022-07-29T10:16:17.490Z,23.09
2022-07-29T10:18:45.568Z,23.39
2022-07-29T10:21:22.623Z,24.05
2022-07-29T10:24:01.136Z,24.03
2022-07-29T10:26:28.921Z,24.01
2022-07-29T10:28:56.495Z,23.32
2022-07-29T10:31:45.006Z,22.84
2022-07-29T10:34:36.465Z,22.63
2022-07-29T10:37:36.126Z,22.12
2022-07-29T10:40:36.932Z,22.26
2022-07-29T10:43:18.498Z,21.93
2022-07-29T10:45:50.235Z,21.87
2022-07-29T10:48:19.663Z,21.72
2022-07-29T10:50:54.580Z,21.96
2022-07-29T10:53:23.065Z,22.11
2022-07-29T10:55:51.323Z,22.37
2022-07-29T10:58:24.161Z,22.55
2022-07-29T11:00:55.100Z,22.43
2022-07-29T11:03:52.373Z,22.64
2022-07-29T11:06:26.550Z,22.56
2022-07-29T11:09:18.258Z,22.79
2022-07-29T11:11:47.710Z,23.33
2022-07-29T11:14:19.824Z,24.36
2022-07-29T11:17:06.524Z,23.99
2022-07-29T11:19:33.377Z,23.34
2022-07-29T11:22:00.287Z,23.46
2022-07-29T11:24:30.021Z,23.43
2022-07-29T11:27:13.510Z,23.67
2022-07-29T11:29:49.752Z,24.13
2022-07-29T11:32:23.308Z,24.91
2022-07-29T11:35:17.816Z,24.44
2022-07-29T11:37:55.228Z,23.66
2022-07-29T11:40:22.975Z,23.48
2022-07-29T11:42:52.251Z,24.09
2022-07-29T11:45:42.064Z,24.34
2022-07-29T11:48:31.547Z,24.57
2022-07-29T11:50:59.996Z,24.28
2022-07-29T11:53:28.951Z,24.23
2022-07-29T11:56:00.164Z,24.51
2022-07-29T11:58:27.143Z,24.29
2022-07-29T12:00:55.642Z,24.43
2022-07-29T12:03:33.490Z,24.40
2022-07-29T12:06:02.499Z,24.45
2022-07-29T12:08:28.966Z,25.38
2022-07-29T12:10:55.457Z,25.23
2022-07-29T12:13:22.776Z,24.66
2022-07-29T12:16:03.990Z,24.30
2022-07-29T12:18:30.580Z,24.17
2022-07-29T12:21:04.679Z,24.10
2022-07-29T12:23:34.904Z,24.11
2022-07-29T12:26:05.565Z,24.67
2022-07-29T12:28:38.350Z,24.65
2022-07-29T12:31:05.533Z,24.97
2022-07-29T12:33:32.328Z,25.17
2022-07-29T12:36:11.768Z,25.18
2022-07-29T12:38:43.992Z,25.80
2022-07-29T12:41:11.307Z,25.43
2022-07-29T12:43:37.739Z,25.11
2022-07-29T12:46:15.747Z,25.10
2022-07-29T12:48:44.499Z,25.49
2022-07-29T12:51:13.203Z,25.68
2022-07-29T12:53:40.100Z,25.74
2022-07-29T12:56:40.558Z,25.58
2022-07-29T12:59:17.689Z,26.02
2022-07-29T13:01:45.304Z,26.48
2022-07-29T13:04:12.014Z,26.53
2022-07-29T13:06:49.668Z,26.47
2022-07-29T13:09:19.596Z,27.07
2022-07-29T13:11:48.739Z,26.85
2022-07-29T13:14:32.794Z,27.40
2022-07-29T13:17:11.447Z,27.06
2022-07-29T13:19:42.655Z,27.23
2022-07-29T13:22:11.381Z,27.36
2022-07-29T13:24:54.342Z,26.96
2022-07-29T13:27:23.583Z,27.02
2022-07-29T13:29:52.287Z,27.82
2022-07-29T13:32:19.960Z,28.21
2022-07-29T13:34:55.267Z,27.87
2022-07-29T13:37:21.825Z,27.51
2022-07-29T13:39:53.034Z,28.28
2022-07-29T13:42:20.427Z,28.98
2022-07-29T13:44:46.856Z,28.63
2022-07-29T13:47:13.790Z,27.86
2022-07-29T13:49:40.197Z,27.45
2022-07-29T13:52:08.282Z,27.71
2022-07-29T13:54:42.067Z,28.89
2022-07-29T13:57:09.726Z,28.74
2022-07-29T13:59:36.208Z,29.68
2022-07-29T14:02:02.737Z,29.67
2022-07-29T14:04:29.318Z,28.48
2022-07-29T14:06:55.852Z,27.29
2022-07-29T14:09:22.273Z,28.43
2022-07-29T14:11:50.604Z,30.03
2022-07-29T14:14:17.277Z,30.69
2022-07-29T14:16:49.054Z,30.40
2022-07-29T14:19:18.427Z,30.69
2022-07-29T14:21:45.547Z,30.14
2022-07-29T14:24:17.979Z,29.93
2022-07-29T14:26:48.610Z,30.09
2022-07-29T14:29:15.187Z,30.39
2022-07-29T14:31:43.971Z,30.38
2022-07-29T14:34:10.478Z,31.12
2022-07-29T14:36:36.890Z,30.09
2022-07-29T14:39:03.309Z,30.27
2022-07-29T14:41:29.713Z,29.80
2022-07-29T14:43:56.214Z,30.31
2022-07-29T14:46:22.733Z,30.53
2022-07-29T14:48:49.312Z,30.61
2022-07-29T14:51:15.785Z,30.81
2022-07-29T14:53:42.201Z,31.71
2022-07-29T14:56:34.941Z,30.45
2022-07-29T14:58:54.990Z,30.12
2022-07-29T15:01:21.512Z,30.29
2022-07-29T15:03:47.943Z,30.43
2022-07-29T15:06:14.475Z,31.03
2022-07-29T15:08:40.988Z,31.01
2022-07-29T15:11:07.580Z,30.63
2022-07-29T15:13:34.788Z,31.20
2022-07-29T15:16:01.218Z,31.75
2022-07-29T15:18:27.645Z,32.18
2022-07-29T15:20:54.121Z,29.04
2022-07-29T15:23:20.694Z,29.99
2022-07-29T15:25:49.963Z,30.82
2022-07-29T15:28:16.428Z,31.29
2022-07-29T15:30:43.024Z,31.22
2022-07-29T15:33:10.355Z,31.11
2022-07-29T15:35:40.633Z,29.49
2022-07-29T15:38:07.487Z,30.31
2022-07-29T15:40:34.220Z,30.83
2022-07-29T15:43:06.465Z,28.13
2022-07-29T15:46:03.112Z,29.72
2022-07-29T15:48:29.619Z,30.51
2022-07-29T15:50:56.245Z,30.59
2022-07-29T15:53:22.673Z,31.66
2022-07-29T15:55:49.087Z,30.53
2022-07-29T15:58:15.545Z,30.05
2022-07-29T16:00:41.937Z,30.25
2022-07-29T16:03:08.423Z,31.51
2022-07-29T16:05:34.873Z,30.72
2022-07-29T16:08:01.380Z,30.70
2022-07-29T16:10:27.908Z,31.49
2022-07-29T16:12:54.341Z,32.37
2022-07-29T16:15:20.772Z,31.51
2022-07-29T16:17:47.228Z,31.56
2022-07-29T16:20:14.087Z,31.61
2022-07-29T16:22:40.687Z,31.71
2022-07-29T16:25:07.617Z,31.02
2022-07-29T16:27:37.676Z,30.93
2022-07-29T16:30:06.851Z,30.87
2022-07-29T16:32:33.476Z,31.71
2022-07-29T16:35:02.004Z,30.89
2022-07-29T16:37:33.436Z,31.11
2022-07-29T16:39:59.933Z,31.55
2022-07-29T16:42:45.619Z,31.45
2022-07-29T16:45:12.995Z,31.59
2022-07-29T16:47:39.413Z,31.68
2022-07-29T16:50:06.359Z,30.41
2022-07-29T16:52:32.808Z,30.58
2022-07-29T16:54:59.178Z,30.00
2022-07-29T16:57:28.100Z,30.18
2022-07-29T16:59:54.552Z,30.76
2022-07-29T17:02:23.433Z,28.58
2022-07-29T17:04:49.959Z,29.66
2022-07-29T17:07:16.510Z,31.04
2022-07-29T17:09:43.032Z,31.01
2022-07-29T17:12:09.569Z,30.83
2022-07-29T17:14:35.975Z,30.41
2022-07-29T17:17:03.138Z,29.52
2022-07-29T17:19:31.669Z,29.57
2022-07-29T17:22:06.404Z,29.16
2022-07-29T17:24:36.868Z,25.75
2022-07-29T17:27:04.963Z,25.23
2022-07-29T17:29:31.411Z,23.72
2022-07-29T17:31:59.473Z,22.67
2022-07-29T17:34:26.200Z,24.01
2022-07-29T17:36:52.679Z,24.66
2022-07-29T17:39:19.152Z,27.39
2022-07-29T17:41:46.789Z,27.89
2022-07-29T17:44:13.504Z,28.70
2022-07-29T17:46:40.518Z,28.82
2022-07-29T17:49:07.311Z,28.32
2022-07-29T17:51:33.758Z,27.81
2022-07-29T17:54:00.213Z,27.32
2022-07-29T17:56:26.647Z,27.96
2022-07-29T17:58:53.321Z,28.71
2022-07-29T18:01:19.927Z,28.03
2022-07-29T18:03:48.947Z,27.85
2022-07-29T18:06:15.366Z,27.37
2022-07-29T18:08:41.830Z,27.76
2022-07-29T18:11:08.274Z,28.36
2022-07-29T18:13:41.682Z,28.19
2022-07-29T18:16:09.173Z,27.68
2022-07-29T18:18:35.813Z,27.23
2022-07-29T18:21:03.301Z,26.78
2022-07-29T18:23:30.167Z,26.41
2022-07-29T18:25:56.593Z,26.43
2022-07-29T18:28:23.483Z,24.56
2022-07-29T18:30:50.364Z,22.00
2022-07-29T18:33:22.367Z,20.88
2022-07-29T18:35:50.744Z,21.32
2022-07-29T18:38:17.499Z,23.40
2022-07-29T18:40:45.575Z,22.78
2022-07-29T18:43:12.375Z,21.14
2022-07-29T18:45:39.462Z,20.01
2022-07-29T18:48:08.347Z,19.69
2022-07-29T18:50:39.581Z,19.32
2022-07-29T18:53:08.412Z,19.13
2022-07-29T18:55:34.985Z,18.91
2022-07-29T18:58:01.451Z,18.81
2022-07-29T19:00:27.971Z,18.72
2022-07-29T19:02:57.491Z,18.64
2022-07-29T19:05:24.634Z,18.53
2022-07-29T19:07:51.085Z,18.45
2022-07-29T19:10:17.952Z,18.34
2022-07-29T19:12:44.489Z,18.21
2022-07-29T19:15:11.076Z,18.08
2022-07-29T19:17:38.625Z,18.00
2022-07-29T19:20:07.267Z,17.90
2022-07-29T19:22:34.138Z,17.79
2022-07-29T19:25:00.534Z,17.63
2022-07-29T19:27:26.969Z,17.54
2022-07-29T19:29:55.795Z,17.39
2022-07-29T19:32:25.987Z,17.30
2022-07-29T19:35:21.890Z,17.21
2022-07-29T19:37:51.382Z,17.06
2022-07-29T19:40:17.995Z,16.93
2022-07-29T19:42:44.414Z,16.82
2022-07-29T19:45:14.495Z,16.78
2022-07-29T19:47:41.022Z,16.76
2022-07-29T19:50:08.384Z,16.66
2022-07-29T19:52:35.151Z,16.61
2022-07-29T19:55:07.632Z,16.51
2022-07-29T19:57:37.874Z,16.48
2022-07-29T20:00:11.448Z,16.43
2022-07-29T20:02:39.342Z,16.36
2022-07-29T20:05:06.646Z,16.23
2022-07-29T20:07:33.503Z,16.16
2022-07-29T20:09:59.940Z,16.07
2022-07-29T20:12:26.386Z,16.06
2022-07-29T20:14:52.877Z,15.93
2022-07-29T20:17:22.029Z,15.88
2022-07-29T20:19:49.664Z,15.86
2022-07-29T20:22:21.150Z,15.81
2022-07-29T20:24:48.643Z,15.76
2022-07-29T20:27:15.444Z,15.74
2022-07-29T20:29:41.911Z,15.68
2022-07-29T20:32:08.449Z,15.66
2022-07-29T20:34:34.936Z,15.60
2022-07-29T20:37:02.700Z,15.53
2022-07-29T20:39:29.500Z,15.53
2022-07-29T20:41:56.175Z,15.47
2022-07-29T20:44:24.206Z,15.48
2022-07-29T20:46:50.665Z,15.44
2022-07-29T20:49:17.434Z,15.39
2022-07-29T20:51:46.399Z,15.32
2022-07-29T20:54:12.929Z,15.19
2022-07-29T20:56:41.424Z,15.12
2022-07-29T20:59:08.969Z,15.08
2022-07-29T21:01:36.091Z,15.03
2022-07-29T21:04:03.505Z,15.03
2022-07-29T21:06:30.811Z,15.07
2022-07-29T21:08:59.451Z,15.08
2022-07-29T21:11:43.148Z,15.06
2022-07-29T21:14:21.998Z,15.03
2022-07-29T21:16:48.443Z,15.00
2022-07-29T21:19:14.868Z,15.02
2022-07-29T21:21:41.392Z,15.02
2022-07-29T21:24:08.107Z,14.96
2022-07-29T21:26:38.381Z,14.83
2022-07-29T21:29:04.831Z,14.77
2022-07-29T21:31:31.250Z,14.70
2022-07-29T21:33:57.689Z,14.59
2022-07-29T21:39:10.754Z,14.48
2022-07-29T21:41:37.254Z,14.42
2022-07-29T21:44:03.690Z,14.53
2022-07-29T21:46:30.259Z,14.47
2022-07-29T21:48:56.753Z,14.41
2022-07-29T21:51:23.208Z,14.44
2022-07-29T21:53:50.560Z,14.40
2022-07-29T21:56:19.734Z,14.40
2022-07-29T21:58:47.705Z,14.25
2022-07-29T22:01:14.795Z,14.28
2022-07-29T22:03:41.265Z,14.22
2022-07-29T22:06:07.692Z,14.14
2022-07-29T22:08:34.354Z,14.04
2022-07-29T22:11:00.803Z,14.01
2022-07-29T22:13:27.296Z,13.99
2022-07-29T22:15:53.750Z,14.17
2022-07-29T22:18:21.004Z,14.14
2022-07-29T22:20:49.125Z,14.02
2022-07-29T22:23:15.586Z,14.02
2022-07-29T22:25:42.060Z,14.00
2022-07-29T22:28:08.461Z,14.06
2022-07-29T22:30:34.927Z,14.17
2022-07-29T22:33:01.415Z,14.17
2022-07-29T22:35:27.921Z,14.14
2022-07-29T22:37:54.398Z,14.04
2022-07-29T22:40:21.002Z,13.98
2022-07-29T22:42:47.398Z,14.09
2022-07-29T22:45:13.861Z,14.14
2022-07-29T22:47:48.450Z,14.06
2022-07-29T22:50:16.066Z,14.09
2022-07-29T22:52:42.487Z,14.12
2022-07-29T22:55:09.159Z,14.10
2022-07-29T22:57:35.882Z,14.09
2022-07-29T23:00:02.590Z,14.00
2022-07-29T23:02:29.090Z,13.99
2022-07-29T23:04:55.504Z,14.01
2022-07-29T23:07:21.955Z,14.00
2022-07-29T23:09:48.383Z,13.96
2022-07-29T23:12:14.812Z,14.04
2022-07-29T23:14:41.353Z,14.12
2022-07-29T23:17:07.912Z,14.05
2022-07-29T23:19:34.338Z,14.06
2022-07-29T23:22:00.758Z,13.98
2022-07-29T23:24:27.151Z,13.94
2022-07-29T23:26:53.903Z,13.97
2022-07-29T23:29:20.346Z,14.02
2022-07-29T23:31:48.111Z,13.94
2022-07-29T23:34:14.980Z,13.94
2022-07-29T23:36:42.254Z,13.93
2022-07-29T23:39:13.153Z,13.86
2022-07-29T23:41:39.780Z,13.80
2022-07-29T23:44:06.267Z,13.77
2022-07-29T23:46:32.761Z,13.88
2022-07-29T23:48:59.258Z,13.93
2022-07-29T23:51:25.889Z,13.96
2022-07-29T23:53:52.994Z,14.03
2022-07-29T23:56:21.030Z,14.03
2022-07-29T23:58:47.502Z,13.96
